sensor_id;sensor_type;location;lat;lon;timestamp;pressure;altitude;pressure_sealevel;temperature;humidity
72061;BME280;59925;52.136;5.420;2023-04-25T00:01:35;101239.22;;;5.13;93.14
72061;BME280;59925;52.136;5.420;2023-04-25T00:04:02;101247.88;;;5.09;93.00
72061;BME280;59925;52.136;5.420;2023-04-25T00:06:29;101249.13;;;5.06;93.52
72061;BME280;59925;52.136;5.420;2023-04-25T00:08:58;101252.59;;;5.06;93.29
72061;BME280;59925;52.136;5.420;2023-04-25T00:11:24;101258.94;;;5.05;93.62
72061;BME280;59925;52.136;5.420;2023-04-25T00:13:50;101261.16;;;5.09;93.69
72061;BME280;59925;52.136;5.420;2023-04-25T00:16:17;101260.72;;;5.12;93.52
72061;BME280;59925;52.136;5.420;2023-04-25T00:18:43;101257.81;;;5.13;93.60
72061;BME280;59925;52.136;5.420;2023-04-25T00:21:12;101264.31;;;5.17;93.75
72061;BME280;59925;52.136;5.420;2023-04-25T00:23:38;101262.47;;;5.18;93.98
72061;BME280;59925;52.136;5.420;2023-04-25T00:26:05;101264.09;;;5.19;93.79
72061;BME280;59925;52.136;5.420;2023-04-25T00:28:31;101265.72;;;5.20;93.67
72061;BME280;59925;52.136;5.420;2023-04-25T00:30:58;101263.66;;;5.22;93.70
72061;BME280;59925;52.136;5.420;2023-04-25T00:33:24;101260.75;;;5.24;93.69
72061;BME280;59925;52.136;5.420;2023-04-25T00:35:51;101264.00;;;5.26;93.58
72061;BME280;59925;52.136;5.420;2023-04-25T00:38:17;101266.66;;;5.26;92.89
72061;BME280;59925;52.136;5.420;2023-04-25T00:40:43;101269.34;;;5.26;93.23
72061;BME280;59925;52.136;5.420;2023-04-25T00:43:10;101269.13;;;5.27;92.66
72061;BME280;59925;52.136;5.420;2023-04-25T00:45:38;101270.97;;;5.27;92.56
72061;BME280;59925;52.136;5.420;2023-04-25T00:48:05;101276.28;;;5.27;92.75
72061;BME280;59925;52.136;5.420;2023-04-25T00:50:33;101273.84;;;5.25;93.05
72061;BME280;59925;52.136;5.420;2023-04-25T00:53:00;101274.44;;;5.27;92.72
72061;BME280;59925;52.136;5.420;2023-04-25T00:55:27;101267.50;;;5.26;92.49
72061;BME280;59925;52.136;5.420;2023-04-25T00:57:53;101272.22;;;5.24;92.75
72061;BME280;59925;52.136;5.420;2023-04-25T01:00:20;101275.13;;;5.22;92.49
72061;BME280;59925;52.136;5.420;2023-04-25T01:02:47;101275.31;;;5.21;92.34
72061;BME280;59925;52.136;5.420;2023-04-25T01:05:13;101273.69;;;5.20;92.43
72061;BME280;59925;52.136;5.420;2023-04-25T01:07:40;101274.13;;;5.17;92.74
72061;BME280;59925;52.136;5.420;2023-04-25T01:10:07;101262.53;;;5.11;92.36
72061;BME280;59925;52.136;5.420;2023-04-25T01:12:34;101269.34;;;5.07;92.25
72061;BME280;59925;52.136;5.420;2023-04-25T01:15:00;101265.28;;;5.04;91.95
72061;BME280;59925;52.136;5.420;2023-04-25T01:17:28;101277.41;;;5.00;91.99
72061;BME280;59925;52.136;5.420;2023-04-25T01:19:55;101278.63;;;4.98;92.16
72061;BME280;59925;52.136;5.420;2023-04-25T01:22:22;101280.94;;;4.94;91.79
72061;BME280;59925;52.136;5.420;2023-04-25T01:24:49;101285.88;;;4.90;92.30
72061;BME280;59925;52.136;5.420;2023-04-25T01:27:15;101286.53;;;4.86;91.69
72061;BME280;59925;52.136;5.420;2023-04-25T01:29:42;101293.75;;;4.79;91.70
72061;BME280;59925;52.136;5.420;2023-04-25T01:32:09;101300.16;;;4.71;92.21
72061;BME280;59925;52.136;5.420;2023-04-25T01:34:36;101291.22;;;4.65;91.45
72061;BME280;59925;52.136;5.420;2023-04-25T01:37:02;101295.97;;;4.63;92.04
72061;BME280;59925;52.136;5.420;2023-04-25T01:39:29;101297.41;;;4.59;92.15
72061;BME280;59925;52.136;5.420;2023-04-25T01:41:56;101307.44;;;4.57;91.89
72061;BME280;59925;52.136;5.420;2023-04-25T01:44:23;101296.44;;;4.53;92.17
72061;BME280;59925;52.136;5.420;2023-04-25T01:46:49;101312.56;;;4.52;91.94
72061;BME280;59925;52.136;5.420;2023-04-25T01:49:15;101301.81;;;4.47;92.24
72061;BME280;59925;52.136;5.420;2023-04-25T01:51:42;101299.34;;;4.45;92.16
72061;BME280;59925;52.136;5.420;2023-04-25T01:54:10;101301.44;;;4.43;92.19
72061;BME280;59925;52.136;5.420;2023-04-25T01:56:37;101309.00;;;4.39;91.69
72061;BME280;59925;52.136;5.420;2023-04-25T01:59:05;101305.75;;;4.37;91.61
72061;BME280;59925;52.136;5.420;2023-04-25T02:01:32;101315.56;;;4.37;91.74
72061;BME280;59925;52.136;5.420;2023-04-25T02:03:59;101312.72;;;4.32;91.95
72061;BME280;59925;52.136;5.420;2023-04-25T02:06:26;101316.63;;;4.29;91.70
72061;BME280;59925;52.136;5.420;2023-04-25T02:08:52;101312.56;;;4.26;91.88
72061;BME280;59925;52.136;5.420;2023-04-25T02:11:19;101318.91;;;4.25;91.91
72061;BME280;59925;52.136;5.420;2023-04-25T02:13:45;101317.50;;;4.23;91.61
72061;BME280;59925;52.136;5.420;2023-04-25T02:16:12;101325.66;;;4.21;91.58
72061;BME280;59925;52.136;5.420;2023-04-25T02:18:39;101321.00;;;4.17;91.71
72061;BME280;59925;52.136;5.420;2023-04-25T02:21:06;101331.63;;;4.17;91.77
72061;BME280;59925;52.136;5.420;2023-04-25T02:23:32;101322.44;;;4.12;91.39
72061;BME280;59925;52.136;5.420;2023-04-25T02:25:59;101324.50;;;4.10;91.84
72061;BME280;59925;52.136;5.420;2023-04-25T02:28:25;101321.28;;;4.08;91.50
72061;BME280;59925;52.136;5.420;2023-04-25T02:30:52;101323.31;;;4.06;91.65
72061;BME280;59925;52.136;5.420;2023-04-25T02:33:19;101325.59;;;4.03;92.00
72061;BME280;59925;52.136;5.420;2023-04-25T02:35:47;101330.50;;;3.99;91.34
72061;BME280;59925;52.136;5.420;2023-04-25T02:38:13;101327.69;;;3.94;91.84
72061;BME280;59925;52.136;5.420;2023-04-25T02:40:40;101331.78;;;3.90;91.78
72061;BME280;59925;52.136;5.420;2023-04-25T02:43:07;101326.09;;;3.86;91.47
72061;BME280;59925;52.136;5.420;2023-04-25T02:45:33;101335.47;;;3.82;91.88
72061;BME280;59925;52.136;5.420;2023-04-25T02:48:02;101336.72;;;3.79;92.18
72061;BME280;59925;52.136;5.420;2023-04-25T02:50:29;101329.38;;;3.81;92.06
72061;BME280;59925;52.136;5.420;2023-04-25T02:52:55;101323.63;;;3.84;92.21
72061;BME280;59925;52.136;5.420;2023-04-25T02:55:22;101326.09;;;3.86;91.89
72061;BME280;59925;52.136;5.420;2023-04-25T02:57:50;101336.47;;;3.88;92.01
72061;BME280;59925;52.136;5.420;2023-04-25T03:00:16;101331.78;;;3.90;92.78
72061;BME280;59925;52.136;5.420;2023-04-25T03:02:43;101339.13;;;3.88;92.46
72061;BME280;59925;52.136;5.420;2023-04-25T03:05:09;101336.28;;;3.89;92.96
72061;BME280;59925;52.136;5.420;2023-04-25T03:07:36;101337.91;;;3.90;92.46
72061;BME280;59925;52.136;5.420;2023-04-25T03:10:02;101333.41;;;3.91;92.86
72061;BME280;59925;52.136;5.420;2023-04-25T03:12:29;101338.94;;;3.89;92.29
72061;BME280;59925;52.136;5.420;2023-04-25T03:14:55;101336.88;;;3.84;92.79
72061;BME280;59925;52.136;5.420;2023-04-25T03:17:21;101338.13;;;3.82;92.58
72061;BME280;59925;52.136;5.420;2023-04-25T03:19:48;101338.97;;;3.82;92.28
72061;BME280;59925;52.136;5.420;2023-04-25T03:22:15;101338.38;;;3.80;92.60
72061;BME280;59925;52.136;5.420;2023-04-25T03:24:41;101343.06;;;3.78;92.42
72061;BME280;59925;52.136;5.420;2023-04-25T03:27:08;101351.81;;;3.79;92.25
72061;BME280;59925;52.136;5.420;2023-04-25T03:29:34;101351.00;;;3.78;92.39
72061;BME280;59925;52.136;5.420;2023-04-25T03:32:00;101352.84;;;3.78;92.48
72061;BME280;59925;52.136;5.420;2023-04-25T03:34:27;101351.81;;;3.79;92.15
72061;BME280;59925;52.136;5.420;2023-04-25T03:36:54;101359.59;;;3.80;92.94
72061;BME280;59925;52.136;5.420;2023-04-25T03:39:20;101361.59;;;3.85;92.84
72061;BME280;59925;52.136;5.420;2023-04-25T03:41:47;101361.78;;;3.90;92.79
72061;BME280;59925;52.136;5.420;2023-04-25T03:44:13;101364.00;;;3.93;92.90
72061;BME280;59925;52.136;5.420;2023-04-25T03:46:40;101364.41;;;3.97;92.29
72061;BME280;59925;52.136;5.420;2023-04-25T03:49:06;101364.78;;;4.01;92.79
72061;BME280;59925;52.136;5.420;2023-04-25T03:51:33;101374.94;;;4.04;92.52
72061;BME280;59925;52.136;5.420;2023-04-25T03:53:59;101372.72;;;4.07;92.30
72061;BME280;59925;52.136;5.420;2023-04-25T03:56:26;101368.81;;;4.10;92.62
72061;BME280;59925;52.136;5.420;2023-04-25T03:58:52;101365.94;;;4.11;92.40
72061;BME280;59925;52.136;5.420;2023-04-25T04:01:18;101370.81;;;4.14;92.26
72061;BME280;59925;52.136;5.420;2023-04-25T04:03:45;101369.00;;;4.15;92.33
72061;BME280;59925;52.136;5.420;2023-04-25T04:06:12;101374.88;;;4.17;92.62
72061;BME280;59925;52.136;5.420;2023-04-25T04:08:39;101377.34;;;4.19;91.93
72061;BME280;59925;52.136;5.420;2023-04-25T04:11:06;101380.00;;;4.19;91.47
72061;BME280;59925;52.136;5.420;2023-04-25T04:13:32;101376.50;;;4.18;91.49
72061;BME280;59925;52.136;5.420;2023-04-25T04:15:59;101381.81;;;4.18;91.90
72061;BME280;59925;52.136;5.420;2023-04-25T04:18:25;101385.09;;;4.20;91.70
72061;BME280;59925;52.136;5.420;2023-04-25T04:20:52;101385.69;;;4.22;91.75
72061;BME280;59925;52.136;5.420;2023-04-25T04:23:19;101383.88;;;4.23;91.57
72061;BME280;59925;52.136;5.420;2023-04-25T04:25:46;101377.31;;;4.25;91.01
72061;BME280;59925;52.136;5.420;2023-04-25T04:28:13;101381.16;;;4.29;90.95
72061;BME280;59925;52.136;5.420;2023-04-25T04:30:39;101388.06;;;4.30;90.69
72061;BME280;59925;52.136;5.420;2023-04-25T04:33:07;101385.22;;;4.32;91.17
72061;BME280;59925;52.136;5.420;2023-04-25T04:35:33;101391.13;;;4.34;90.93
72061;BME280;59925;52.136;5.420;2023-04-25T04:38:00;101395.44;;;4.35;90.22
72061;BME280;59925;52.136;5.420;2023-04-25T04:40:27;101396.00;;;4.37;90.55
72061;BME280;59925;52.136;5.420;2023-04-25T04:42:53;101396.59;;;4.39;90.03
72061;BME280;59925;52.136;5.420;2023-04-25T04:45:23;101406.81;;;4.42;89.84
72061;BME280;59925;52.136;5.420;2023-04-25T04:47:49;101403.91;;;4.44;90.15
72061;BME280;59925;52.136;5.420;2023-04-25T04:50:16;101414.34;;;4.45;89.83
72061;BME280;59925;52.136;5.420;2023-04-25T04:52:42;101408.00;;;4.47;89.21
72061;BME280;59925;52.136;5.420;2023-04-25T04:55:09;101410.44;;;4.48;89.55
72061;BME280;59925;52.136;5.420;2023-04-25T04:57:35;101416.13;;;4.52;89.03
72061;BME280;59925;52.136;5.420;2023-04-25T05:00:03;101421.03;;;4.55;88.66
72061;BME280;59925;52.136;5.420;2023-04-25T05:02:38;101425.31;;;4.56;88.20
72061;BME280;59925;52.136;5.420;2023-04-25T05:05:05;101431.22;;;4.58;88.38
72061;BME280;59925;52.136;5.420;2023-04-25T05:07:31;101436.09;;;4.61;88.03
72061;BME280;59925;52.136;5.420;2023-04-25T05:09:58;101434.06;;;4.63;87.80
72061;BME280;59925;52.136;5.420;2023-04-25T05:12:25;101438.31;;;4.64;88.37
72061;BME280;59925;52.136;5.420;2023-04-25T05:14:51;101441.56;;;4.66;88.08
72061;BME280;59925;52.136;5.420;2023-04-25T05:17:17;101442.59;;;4.65;88.14
72061;BME280;59925;52.136;5.420;2023-04-25T05:19:44;101446.88;;;4.66;88.15
72061;BME280;59925;52.136;5.420;2023-04-25T05:22:10;101457.09;;;4.69;87.69
72061;BME280;59925;52.136;5.420;2023-04-25T05:24:37;101458.72;;;4.70;88.14
72061;BME280;59925;52.136;5.420;2023-04-25T05:27:03;101460.13;;;4.73;88.08
72061;BME280;59925;52.136;5.420;2023-04-25T05:29:30;101466.03;;;4.75;87.53
72061;BME280;59925;52.136;5.420;2023-04-25T05:31:56;101460.06;;;4.80;88.06
72061;BME280;59925;52.136;5.420;2023-04-25T05:34:22;101462.72;;;4.80;87.94
72061;BME280;59925;52.136;5.420;2023-04-25T05:36:49;101461.50;;;4.82;87.85
72061;BME280;59925;52.136;5.420;2023-04-25T05:39:16;101469.25;;;4.84;87.69
72061;BME280;59925;52.136;5.420;2023-04-25T05:41:43;101460.84;;;4.87;87.85
72061;BME280;59925;52.136;5.420;2023-04-25T05:44:10;101462.63;;;4.93;87.86
72061;BME280;59925;52.136;5.420;2023-04-25T05:46:36;101455.44;;;5.00;87.67
72061;BME280;59925;52.136;5.420;2023-04-25T05:49:03;101462.09;;;5.10;87.89
72061;BME280;59925;52.136;5.420;2023-04-25T05:51:29;101469.66;;;5.13;87.32
72061;BME280;59925;52.136;5.420;2023-04-25T05:53:56;101472.47;;;5.18;87.56
72061;BME280;59925;52.136;5.420;2023-04-25T05:56:22;101478.75;;;5.24;87.09
72061;BME280;59925;52.136;5.420;2023-04-25T05:58:49;101482.97;;;5.31;86.97
72061;BME280;59925;52.136;5.420;2023-04-25T06:01:15;101494.81;;;5.35;87.16
72061;BME280;59925;52.136;5.420;2023-04-25T06:03:42;101493.97;;;5.42;86.66
72061;BME280;59925;52.136;5.420;2023-04-25T06:06:09;101490.78;;;5.51;86.73
72061;BME280;59925;52.136;5.420;2023-04-25T06:08:36;101488.44;;;5.62;86.32
72061;BME280;59925;52.136;5.420;2023-04-25T06:11:02;101501.47;;;5.70;86.19
72061;BME280;59925;52.136;5.420;2023-04-25T06:13:28;101499.41;;;5.72;85.83
72061;BME280;59925;52.136;5.420;2023-04-25T06:15:55;101500.94;;;5.80;85.86
72061;BME280;59925;52.136;5.420;2023-04-25T06:18:21;101509.47;;;5.89;85.19
72061;BME280;59925;52.136;5.420;2023-04-25T06:20:47;101501.66;;;6.12;84.65
72061;BME280;59925;52.136;5.420;2023-04-25T06:23:14;101504.94;;;6.26;84.57
72061;BME280;59925;52.136;5.420;2023-04-25T06:25:40;101510.72;;;6.42;84.09
72061;BME280;59925;52.136;5.420;2023-04-25T06:28:07;101506.25;;;6.54;83.57
72061;BME280;59925;52.136;5.420;2023-04-25T06:30:33;101509.72;;;6.55;82.73
72061;BME280;59925;52.136;5.420;2023-04-25T06:33:00;101509.25;;;6.58;82.09
72061;BME280;59925;52.136;5.420;2023-04-25T06:35:26;101515.53;;;6.64;82.11
72061;BME280;59925;52.136;5.420;2023-04-25T06:37:53;101513.38;;;6.72;82.20
72061;BME280;59925;52.136;5.420;2023-04-25T06:40:19;101515.59;;;6.75;82.29
72061;BME280;59925;52.136;5.420;2023-04-25T06:42:45;101511.88;;;6.77;81.50
72061;BME280;59925;52.136;5.420;2023-04-25T06:45:12;101521.63;;;6.83;81.59
72061;BME280;59925;52.136;5.420;2023-04-25T06:47:38;101519.78;;;6.83;81.55
72061;BME280;59925;52.136;5.420;2023-04-25T06:50:05;101517.13;;;6.83;81.36
72061;BME280;59925;52.136;5.420;2023-04-25T06:52:32;101522.00;;;6.86;80.99
72061;BME280;59925;52.136;5.420;2023-04-25T06:54:59;101527.44;;;6.92;80.38
72061;BME280;59925;52.136;5.420;2023-04-25T06:57:25;101521.13;;;7.04;80.51
72061;BME280;59925;52.136;5.420;2023-04-25T06:59:52;101528.56;;;7.14;80.52
72061;BME280;59925;52.136;5.420;2023-04-25T07:02:18;101528.66;;;7.19;79.67
72061;BME280;59925;52.136;5.420;2023-04-25T07:04:45;101528.81;;;7.25;79.24
72061;BME280;59925;52.136;5.420;2023-04-25T07:07:12;101531.22;;;7.26;78.88
72061;BME280;59925;52.136;5.420;2023-04-25T07:09:39;101533.56;;;7.23;78.31
72061;BME280;59925;52.136;5.420;2023-04-25T07:12:05;101535.03;;;7.18;77.33
72061;BME280;59925;52.136;5.420;2023-04-25T07:14:32;101543.28;;;7.17;77.21
72061;BME280;59925;52.136;5.420;2023-04-25T07:16:58;101550.34;;;7.23;77.05
72061;BME280;59925;52.136;5.420;2023-04-25T07:19:25;101536.34;;;7.28;76.84
72061;BME280;59925;52.136;5.420;2023-04-25T07:21:52;101556.63;;;7.29;76.34
72061;BME280;59925;52.136;5.420;2023-04-25T07:24:19;101557.00;;;7.32;76.60
72061;BME280;59925;52.136;5.420;2023-04-25T07:26:46;101557.25;;;7.66;76.81
72061;BME280;59925;52.136;5.420;2023-04-25T07:29:12;101562.00;;;8.00;75.88
72061;BME280;59925;52.136;5.420;2023-04-25T07:31:39;101559.88;;;8.14;74.99
72061;BME280;59925;52.136;5.420;2023-04-25T07:34:05;101564.03;;;8.22;74.58
72061;BME280;59925;52.136;5.420;2023-04-25T07:36:32;101558.16;;;8.20;74.63
72061;BME280;59925;52.136;5.420;2023-04-25T07:38:58;101562.28;;;8.27;75.08
72061;BME280;59925;52.136;5.420;2023-04-25T07:41:25;101563.31;;;8.38;75.35
72061;BME280;59925;52.136;5.420;2023-04-25T07:43:51;101566.31;;;8.42;74.58
72061;BME280;59925;52.136;5.420;2023-04-25T07:46:17;101576.78;;;8.43;73.39
72061;BME280;59925;52.136;5.420;2023-04-25T07:48:44;101578.53;;;8.38;71.49
72061;BME280;59925;52.136;5.420;2023-04-25T07:51:10;101572.50;;;8.42;71.97
72061;BME280;59925;52.136;5.420;2023-04-25T07:53:37;101579.09;;;8.52;70.45
72061;BME280;59925;52.136;5.420;2023-04-25T07:56:04;101576.69;;;8.50;70.66
72061;BME280;59925;52.136;5.420;2023-04-25T07:58:31;101586.56;;;8.38;69.70
72061;BME280;59925;52.136;5.420;2023-04-25T08:00:57;101589.09;;;8.44;69.70
72061;BME280;59925;52.136;5.420;2023-04-25T08:03:24;101595.97;;;8.52;69.79
72061;BME280;59925;52.136;5.420;2023-04-25T08:05:51;101594.34;;;8.80;69.23
72061;BME280;59925;52.136;5.420;2023-04-25T08:08:17;101596.25;;;8.97;68.65
72061;BME280;59925;52.136;5.420;2023-04-25T08:10:44;101595.34;;;8.91;68.01
72061;BME280;59925;52.136;5.420;2023-04-25T08:13:10;101603.50;;;8.84;68.22
72061;BME280;59925;52.136;5.420;2023-04-25T08:15:36;101613.59;;;8.94;68.54
72061;BME280;59925;52.136;5.420;2023-04-25T08:18:03;101616.09;;;9.13;68.22
72061;BME280;59925;52.136;5.420;2023-04-25T08:20:29;101617.47;;;9.32;67.00
72061;BME280;59925;52.136;5.420;2023-04-25T08:22:56;101623.59;;;9.16;66.70
72061;BME280;59925;52.136;5.420;2023-04-25T08:25:22;101631.13;;;8.61;66.31
72061;BME280;59925;52.136;5.420;2023-04-25T08:27:49;101641.88;;;8.25;66.83
72061;BME280;59925;52.136;5.420;2023-04-25T08:30:15;101641.75;;;8.20;67.92
72061;BME280;59925;52.136;5.420;2023-04-25T08:32:42;101639.06;;;8.08;66.80
72061;BME280;59925;52.136;5.420;2023-04-25T08:35:09;101643.84;;;8.06;65.86
72061;BME280;59925;52.136;5.420;2023-04-25T08:37:35;101644.44;;;7.96;66.05
72061;BME280;59925;52.136;5.420;2023-04-25T08:40:03;101649.63;;;8.15;67.12
72061;BME280;59925;52.136;5.420;2023-04-25T08:42:33;101645.69;;;8.29;67.09
72061;BME280;59925;52.136;5.420;2023-04-25T08:45:01;101650.31;;;8.34;66.00
72061;BME280;59925;52.136;5.420;2023-04-25T08:47:33;101649.06;;;8.37;65.95
72061;BME280;59925;52.136;5.420;2023-04-25T08:50:02;101657.75;;;8.44;65.49
72061;BME280;59925;52.136;5.420;2023-04-25T08:52:35;101662.16;;;8.38;64.98
72061;BME280;59925;52.136;5.420;2023-04-25T08:55:02;101667.63;;;8.55;65.04
72061;BME280;59925;52.136;5.420;2023-04-25T08:57:31;101661.16;;;8.92;64.93
72061;BME280;59925;52.136;5.420;2023-04-25T08:59:57;101670.41;;;9.30;65.20
72061;BME280;59925;52.136;5.420;2023-04-25T09:02:24;101673.22;;;9.70;64.18
72061;BME280;59925;52.136;5.420;2023-04-25T09:04:53;101671.94;;;9.89;63.13
72061;BME280;59925;52.136;5.420;2023-04-25T09:07:21;101671.84;;;9.84;62.15
72061;BME280;59925;52.136;5.420;2023-04-25T09:09:47;101678.81;;;10.02;62.29
72061;BME280;59925;52.136;5.420;2023-04-25T09:12:14;101683.09;;;10.37;62.07
72061;BME280;59925;52.136;5.420;2023-04-25T09:14:40;101682.63;;;10.85;62.78
72061;BME280;59925;52.136;5.420;2023-04-25T09:17:08;101685.50;;;11.28;61.20
72061;BME280;59925;52.136;5.420;2023-04-25T09:19:36;101689.69;;;11.41;60.30
72061;BME280;59925;52.136;5.420;2023-04-25T09:22:07;101694.22;;;11.13;60.23
72061;BME280;59925;52.136;5.420;2023-04-25T09:24:42;101703.69;;;10.71;59.22
72061;BME280;59925;52.136;5.420;2023-04-25T09:27:11;101708.75;;;10.50;60.17
72061;BME280;59925;52.136;5.420;2023-04-25T09:29:39;101699.56;;;10.46;60.75
72061;BME280;59925;52.136;5.420;2023-04-25T09:32:20;101710.38;;;10.51;60.63
72061;BME280;59925;52.136;5.420;2023-04-25T09:34:49;101707.13;;;10.49;59.70
72061;BME280;59925;52.136;5.420;2023-04-25T09:37:21;101712.81;;;10.36;59.17
72061;BME280;59925;52.136;5.420;2023-04-25T09:39:59;101711.03;;;10.24;59.37
72061;BME280;59925;52.136;5.420;2023-04-25T09:42:28;101720.97;;;10.24;59.72
72061;BME280;59925;52.136;5.420;2023-04-25T09:44:58;101731.59;;;10.02;61.21
72061;BME280;59925;52.136;5.420;2023-04-25T09:47:25;101736.44;;;9.71;61.63
72061;BME280;59925;52.136;5.420;2023-04-25T09:49:53;101741.66;;;9.48;61.88
72061;BME280;59925;52.136;5.420;2023-04-25T09:52:21;101751.09;;;9.22;62.37
72061;BME280;59925;52.136;5.420;2023-04-25T09:54:51;101756.91;;;9.07;62.76
72061;BME280;59925;52.136;5.420;2023-04-25T09:57:22;101747.97;;;9.13;62.79
72061;BME280;59925;52.136;5.420;2023-04-25T09:59:53;101753.28;;;9.25;63.12
72061;BME280;59925;52.136;5.420;2023-04-25T10:02:22;101760.06;;;9.45;63.50
72061;BME280;59925;52.136;5.420;2023-04-25T10:04:51;101761.50;;;9.64;63.04
72061;BME280;59925;52.136;5.420;2023-04-25T10:07:19;101763.53;;;9.74;63.14
72061;BME280;59925;52.136;5.420;2023-04-25T10:09:48;101764.06;;;10.05;62.54
72061;BME280;59925;52.136;5.420;2023-04-25T10:12:18;101753.84;;;10.53;62.41
72061;BME280;59925;52.136;5.420;2023-04-25T10:14:45;101759.19;;;11.15;61.47
72061;BME280;59925;52.136;5.420;2023-04-25T10:17:13;101765.72;;;11.46;59.82
72061;BME280;59925;52.136;5.420;2023-04-25T10:19:40;101756.59;;;12.02;56.75
72061;BME280;59925;52.136;5.420;2023-04-25T10:24:39;101755.09;;;12.17;56.32
72061;BME280;59925;52.136;5.420;2023-04-25T10:27:06;101750.59;;;12.27;56.52
72061;BME280;59925;52.136;5.420;2023-04-25T10:29:33;101742.72;;;12.59;55.73
72061;BME280;59925;52.136;5.420;2023-04-25T10:31:59;101752.19;;;12.66;55.34
72061;BME280;59925;52.136;5.420;2023-04-25T10:34:43;101744.13;;;12.71;54.62
72061;BME280;59925;52.136;5.420;2023-04-25T10:37:13;101746.31;;;12.80;54.82
72061;BME280;59925;52.136;5.420;2023-04-25T10:39:40;101749.25;;;12.73;53.52
72061;BME280;59925;52.136;5.420;2023-04-25T10:42:09;101750.91;;;12.84;54.29
72061;BME280;59925;52.136;5.420;2023-04-25T10:44:39;101749.72;;;13.23;54.44
72061;BME280;59925;52.136;5.420;2023-04-25T10:47:07;101749.72;;;13.23;53.49
72061;BME280;59925;52.136;5.420;2023-04-25T10:49:41;101752.44;;;13.39;52.34
72061;BME280;59925;52.136;5.420;2023-04-25T10:54:54;101740.66;;;13.60;51.10
72061;BME280;59925;52.136;5.420;2023-04-25T11:00:08;101752.28;;;14.07;50.87
72061;BME280;59925;52.136;5.420;2023-04-25T11:02:41;101745.25;;;13.86;51.16
72061;BME280;59925;52.136;5.420;2023-04-25T11:05:09;101750.38;;;14.13;50.28
72061;BME280;59925;52.136;5.420;2023-04-25T11:08:02;101755.63;;;13.25;49.27
72061;BME280;59925;52.136;5.420;2023-04-25T11:10:34;101772.59;;;12.62;50.14
72061;BME280;59925;52.136;5.420;2023-04-25T11:13:03;101776.56;;;12.11;52.40
72061;BME280;59925;52.136;5.420;2023-04-25T11:15:31;101783.00;;;11.56;54.81
72061;BME280;59925;52.136;5.420;2023-04-25T11:17:57;101800.19;;;11.10;56.32
72061;BME280;59925;52.136;5.420;2023-04-25T11:20:25;101798.88;;;10.91;57.75
72061;BME280;59925;52.136;5.420;2023-04-25T11:22:52;101796.44;;;10.72;59.14
72061;BME280;59925;52.136;5.420;2023-04-25T11:25:19;101815.09;;;10.45;60.45
72061;BME280;59925;52.136;5.420;2023-04-25T11:27:52;101816.59;;;10.23;61.51
72061;BME280;59925;52.136;5.420;2023-04-25T11:30:20;101806.03;;;10.00;62.94
72061;BME280;59925;52.136;5.420;2023-04-25T11:32:47;101805.41;;;10.09;63.28
72061;BME280;59925;52.136;5.420;2023-04-25T11:35:14;101807.50;;;10.24;64.01
72061;BME280;59925;52.136;5.420;2023-04-25T11:37:42;101800.38;;;10.30;64.02
72061;BME280;59925;52.136;5.420;2023-04-25T11:40:10;101810.59;;;10.33;63.91
72061;BME280;59925;52.136;5.420;2023-04-25T11:42:44;101799.75;;;10.40;63.57
72061;BME280;59925;52.136;5.420;2023-04-25T11:45:12;101805.13;;;10.40;63.15
72061;BME280;59925;52.136;5.420;2023-04-25T11:47:39;101813.06;;;10.69;62.59
72061;BME280;59925;52.136;5.420;2023-04-25T11:50:07;101813.53;;;11.05;61.70
72061;BME280;59925;52.136;5.420;2023-04-25T11:55:05;101815.66;;;11.70;58.33
72061;BME280;59925;52.136;5.420;2023-04-25T11:57:35;101809.94;;;12.16;57.75
72061;BME280;59925;52.136;5.420;2023-04-25T12:00:14;101803.22;;;12.56;55.03
72061;BME280;59925;52.136;5.420;2023-04-25T12:02:52;101799.81;;;12.71;55.01
72061;BME280;59925;52.136;5.420;2023-04-25T12:05:20;101798.47;;;13.32;54.02
72061;BME280;59925;52.136;5.420;2023-04-25T12:07:52;101797.22;;;13.45;52.51
72061;BME280;59925;52.136;5.420;2023-04-25T12:10:18;101804.75;;;13.43;51.67
72061;BME280;59925;52.136;5.420;2023-04-25T12:12:46;101793.38;;;13.36;51.60
72061;BME280;59925;52.136;5.420;2023-04-25T12:15:17;101808.28;;;12.52;50.85
72061;BME280;59925;52.136;5.420;2023-04-25T12:17:46;101807.88;;;12.33;51.96
72061;BME280;59925;52.136;5.420;2023-04-25T12:20:15;101796.75;;;13.00;51.76
72061;BME280;59925;52.136;5.420;2023-04-25T12:22:43;101816.78;;;13.25;51.95
72061;BME280;59925;52.136;5.420;2023-04-25T12:25:12;101818.31;;;12.57;50.44
72061;BME280;59925;52.136;5.420;2023-04-25T12:27:39;101823.69;;;12.24;50.97
72061;BME280;59925;52.136;5.420;2023-04-25T12:30:08;101819.19;;;12.03;51.97
72061;BME280;59925;52.136;5.420;2023-04-25T12:32:35;101825.44;;;12.08;51.85
72061;BME280;59925;52.136;5.420;2023-04-25T12:35:02;101820.41;;;11.90;51.37
72061;BME280;59925;52.136;5.420;2023-04-25T12:37:28;101837.56;;;11.61;51.31
72061;BME280;59925;52.136;5.420;2023-04-25T12:39:55;101829.81;;;11.65;51.91
72061;BME280;59925;52.136;5.420;2023-04-25T12:42:21;101829.22;;;11.85;50.90
72061;BME280;59925;52.136;5.420;2023-04-25T12:44:47;101825.66;;;12.02;50.79
72061;BME280;59925;52.136;5.420;2023-04-25T12:47:14;101818.13;;;12.74;50.08
72061;BME280;59925;52.136;5.420;2023-04-25T12:49:41;101815.63;;;13.10;49.41
72061;BME280;59925;52.136;5.420;2023-04-25T12:52:07;101816.97;;;13.92;49.10
72061;BME280;59925;52.136;5.420;2023-04-25T12:54:33;101815.09;;;14.08;46.90
72061;BME280;59925;52.136;5.420;2023-04-25T12:57:00;101814.84;;;14.20;45.99
72061;BME280;59925;52.136;5.420;2023-04-25T12:59:28;101813.16;;;14.50;46.23
72061;BME280;59925;52.136;5.420;2023-04-25T13:01:55;101810.50;;;14.14;45.63
72061;BME280;59925;52.136;5.420;2023-04-25T13:04:21;101812.66;;;13.91;46.21
72061;BME280;59925;52.136;5.420;2023-04-25T13:06:48;101813.72;;;14.47;46.80
72061;BME280;59925;52.136;5.420;2023-04-25T13:09:15;101818.28;;;14.67;46.54